TAP1735 LPPT-LPPS
Flight info
| Callsign | TAP1735 |
|---|---|
| Flight time | N/A |
| Altitude | 35000 |
| Route | OLBOD/N0434F370 DCT NARTA DCT RAKUN |
| Aircraft | A20N/M-SDE2E3FGHIRWXY/LB1 |
Departure
| Time | 2026-05-07 08:34 |
|---|---|
| Airport | Lisbon Humberto Delgado Airport (LPPT) |
Arrival
| Time | N/A |
|---|---|
| Airport | Porto Santo Airport (LPPS) |
| Time | Latitude | Longitude | Altitude | Speed | Heading |
|---|---|---|---|---|---|
| 2026-05-07 08:07 | 38.76452 | -9.13702 | 383 ft | 0 kts | 168° |
| 2026-05-07 08:26 | 38.76472 | -9.13707 | 383 ft | 2 kts | 168° |
| 2026-05-07 08:26 | 38.76487 | -9.13711 | 383 ft | 2 kts | 168° |
| 2026-05-07 08:26 | 38.76502 | -9.13716 | 383 ft | 2 kts | 168° |
| 2026-05-07 08:27 | 38.76516 | -9.13717 | 383 ft | 2 kts | 210° |
| 2026-05-07 08:27 | 38.76524 | -9.13705 | 383 ft | 0 kts | 255° |
| 2026-05-07 08:27 | 38.76525 | -9.13696 | 383 ft | 1 kts | 259° |
| 2026-05-07 08:27 | 38.76525 | -9.13695 | 383 ft | 0 kts | 258° |
| 2026-05-07 08:30 | 38.76525 | -9.13698 | 383 ft | 0 kts | 259° |
| 2026-05-07 08:30 | 38.76523 | -9.13707 | 383 ft | 1 kts | 259° |
| 2026-05-07 08:30 | 38.76521 | -9.13724 | 383 ft | 2 kts | 259° |
| 2026-05-07 08:30 | 38.76517 | -9.13748 | 383 ft | 3 kts | 260° |
| 2026-05-07 08:31 | 38.76512 | -9.13787 | 383 ft | 4 kts | 263° |
| 2026-05-07 08:31 | 38.76512 | -9.13843 | 383 ft | 6 kts | 276° |
| 2026-05-07 08:31 | 38.76532 | -9.13905 | 383 ft | 8 kts | 308° |
| 2026-05-07 08:31 | 38.76567 | -9.13967 | 383 ft | 9 kts | 288° |
| 2026-05-07 08:32 | 38.76564 | -9.14057 | 383 ft | 10 kts | 260° |
| 2026-05-07 08:32 | 38.76569 | -9.14152 | 383 ft | 11 kts | 289° |
| 2026-05-07 08:32 | 38.76602 | -9.14248 | 383 ft | 11 kts | 293° |
| 2026-05-07 08:32 | 38.76637 | -9.14349 | 383 ft | 12 kts | 309° |
| 2026-05-07 08:33 | 38.76694 | -9.14363 | 383 ft | 5 kts | 24° |
| 2026-05-07 08:33 | 38.76707 | -9.14356 | 383 ft | 9 kts | 24° |
| 2026-05-07 08:33 | 38.77042 | -9.14179 | 383 ft | 91 kts | 22° |
| 2026-05-07 08:33 | 38.77842 | -9.13745 | 384 ft | 157 kts | 23° |
| 2026-05-07 08:34 | 38.78902 | -9.13143 | 933 ft | 167 kts | 24° |
| 2026-05-07 08:34 | 38.79870 | -9.12478 | 1805 ft | 159 kts | 30° |
| 2026-05-07 08:34 | 38.80815 | -9.11750 | 2464 ft | 166 kts | 30° |
| 2026-05-07 08:34 | 38.81861 | -9.10976 | 2966 ft | 179 kts | 29° |
| 2026-05-07 08:35 | 38.83000 | -9.10174 | 3304 ft | 195 kts | 28° |
| 2026-05-07 08:35 | 38.84253 | -9.09320 | 3615 ft | 214 kts | 27° |
| 2026-05-07 08:35 | 38.85623 | -9.08401 | 3928 ft | 235 kts | 27° |
| 2026-05-07 08:35 | 38.87077 | -9.07263 | 4327 ft | 254 kts | 43° |
| 2026-05-07 08:36 | 38.88031 | -9.05342 | 4846 ft | 267 kts | 72° |
| 2026-05-07 08:36 | 38.88177 | -9.02973 | 5627 ft | 270 kts | 99° |
| 2026-05-07 08:36 | 38.87514 | -9.00748 | 6431 ft | 273 kts | 118° |
| 2026-05-07 08:36 | 38.86494 | -8.98667 | 7232 ft | 277 kts | 130° |
| 2026-05-07 08:37 | 38.84973 | -8.97179 | 7982 ft | 283 kts | 155° |
| 2026-05-07 08:37 | 38.83062 | -8.96691 | 8764 ft | 287 kts | 182° |
| 2026-05-07 08:37 | 38.81147 | -8.97293 | 9557 ft | 291 kts | 201° |
| 2026-05-07 08:37 | 38.79283 | -8.98305 | 10332 ft | 295 kts | 202° |
| 2026-05-07 08:38 | 38.77351 | -8.99390 | 10792 ft | 311 kts | 202° |
| 2026-05-07 08:38 | 38.75334 | -9.00509 | 11309 ft | 323 kts | 202° |
| 2026-05-07 08:38 | 38.73274 | -9.01635 | 12053 ft | 326 kts | 202° |
| 2026-05-07 08:38 | 38.71179 | -9.02770 | 12814 ft | 328 kts | 202° |
| 2026-05-07 08:39 | 38.69076 | -9.03903 | 13518 ft | 332 kts | 201° |
| 2026-05-07 08:39 | 38.66948 | -9.05045 | 14203 ft | 336 kts | 201° |
| 2026-05-07 08:39 | 38.64795 | -9.06197 | 14875 ft | 339 kts | 201° |
| 2026-05-07 08:39 | 38.62616 | -9.07361 | 15534 ft | 343 kts | 201° |
| 2026-05-07 08:40 | 38.60374 | -9.08557 | 16191 ft | 346 kts | 201° |
| 2026-05-07 08:40 | 38.58115 | -9.09762 | 16833 ft | 350 kts | 201° |
| 2026-05-07 08:40 | 38.55853 | -9.10967 | 17455 ft | 353 kts | 201° |
| 2026-05-07 08:40 | 38.53552 | -9.12193 | 18067 ft | 357 kts | 201° |
| 2026-05-07 08:41 | 38.51219 | -9.13434 | 18669 ft | 360 kts | 201° |
| 2026-05-07 08:41 | 38.48864 | -9.14687 | 19257 ft | 363 kts | 201° |
| 2026-05-07 08:41 | 38.46458 | -9.15973 | 19843 ft | 366 kts | 203° |
| 2026-05-07 08:41 | 38.44288 | -9.17730 | 20363 ft | 372 kts | 223° |
| 2026-05-07 08:42 | 38.42712 | -9.20441 | 20905 ft | 377 kts | 244° |
| 2026-05-07 08:42 | 38.42019 | -9.23712 | 21431 ft | 380 kts | 266° |
| 2026-05-07 08:42 | 38.41986 | -9.27171 | 21996 ft | 383 kts | 271° |
| 2026-05-07 08:42 | 38.42048 | -9.30679 | 22523 ft | 386 kts | 271° |
| 2026-05-07 08:43 | 38.42107 | -9.34137 | 23077 ft | 388 kts | 271° |
| 2026-05-07 08:43 | 38.42152 | -9.37633 | 23597 ft | 390 kts | 271° |
| 2026-05-07 08:43 | 38.42185 | -9.41188 | 24095 ft | 394 kts | 271° |
| 2026-05-07 08:43 | 38.42208 | -9.44724 | 24575 ft | 397 kts | 271° |
| 2026-05-07 08:44 | 38.42226 | -9.48322 | 25052 ft | 400 kts | 270° |
| 2026-05-07 08:44 | 38.42240 | -9.51921 | 25517 ft | 403 kts | 270° |
| 2026-05-07 08:44 | 38.42254 | -9.55592 | 25975 ft | 405 kts | 270° |
| 2026-05-07 08:44 | 38.42264 | -9.59239 | 26417 ft | 408 kts | 270° |
| 2026-05-07 08:45 | 38.42274 | -9.62942 | 26853 ft | 411 kts | 270° |
| 2026-05-07 08:45 | 38.42283 | -9.66729 | 27284 ft | 414 kts | 270° |
| 2026-05-07 08:45 | 38.42289 | -9.70442 | 27691 ft | 417 kts | 270° |
| 2026-05-07 08:45 | 38.42295 | -9.74208 | 28092 ft | 419 kts | 270° |
| 2026-05-07 08:46 | 38.42299 | -9.77974 | 28482 ft | 422 kts | 270° |
| 2026-05-07 08:46 | 38.42302 | -9.81724 | 28858 ft | 424 kts | 270° |
| 2026-05-07 08:46 | 38.42303 | -9.85515 | 29226 ft | 427 kts | 270° |
| 2026-05-07 08:46 | 38.42304 | -9.89351 | 29588 ft | 429 kts | 270° |
| 2026-05-07 08:47 | 38.42284 | -9.93176 | 29937 ft | 432 kts | 267° |
| 2026-05-07 08:47 | 38.41996 | -9.97049 | 30277 ft | 434 kts | 260° |
| 2026-05-07 08:47 | 38.41365 | -10.00791 | 30604 ft | 436 kts | 253° |
| 2026-05-07 08:47 | 38.40375 | -10.04475 | 30928 ft | 437 kts | 246° |
| 2026-05-07 08:48 | 38.39076 | -10.07976 | 31298 ft | 437 kts | 242° |
| 2026-05-07 08:48 | 38.37665 | -10.11392 | 31740 ft | 436 kts | 241° |
| 2026-05-07 08:48 | 38.36226 | -10.14815 | 32169 ft | 435 kts | 241° |
| 2026-05-07 08:48 | 38.34799 | -10.18215 | 32578 ft | 434 kts | 241° |
| 2026-05-07 08:49 | 38.33386 | -10.21599 | 32973 ft | 433 kts | 241° |
| 2026-05-07 08:49 | 38.31971 | -10.24999 | 33348 ft | 433 kts | 241° |
| 2026-05-07 08:49 | 38.30554 | -10.28409 | 33670 ft | 434 kts | 241° |
| 2026-05-07 08:49 | 38.29127 | -10.31846 | 33963 ft | 435 kts | 241° |
| 2026-05-07 08:50 | 38.27711 | -10.35252 | 34246 ft | 437 kts | 241° |
| 2026-05-07 08:50 | 38.26273 | -10.38709 | 34530 ft | 438 kts | 241° |
| 2026-05-07 08:50 | 38.24853 | -10.42121 | 34803 ft | 439 kts | 241° |
| 2026-05-07 08:50 | 38.23403 | -10.45601 | 34909 ft | 441 kts | 241° |
| 2026-05-07 08:51 | 38.20528 | -10.52486 | 34920 ft | 441 kts | 241° |
| 2026-05-07 08:51 | 38.17593 | -10.59323 | 34923 ft | 440 kts | 238° |
| 2026-05-07 08:52 | 38.14026 | -10.65672 | 34923 ft | 439 kts | 228° |
| 2026-05-07 08:52 | 38.09788 | -10.71214 | 34924 ft | 437 kts | 219° |
| 2026-05-07 08:53 | 38.05012 | -10.75939 | 34925 ft | 437 kts | 214° |
| 2026-05-07 08:53 | 38.00103 | -10.80488 | 34924 ft | 437 kts | 214° |
| 2026-05-07 08:54 | 37.95179 | -10.85046 | 34923 ft | 440 kts | 215° |
| 2026-05-07 08:54 | 37.90223 | -10.89637 | 34923 ft | 440 kts | 216° |
| 2026-05-07 08:55 | 37.85282 | -10.94198 | 34924 ft | 439 kts | 216° |
| 2026-05-07 08:55 | 37.80367 | -10.98735 | 34925 ft | 436 kts | 217° |
| 2026-05-07 08:56 | 37.75487 | -11.03246 | 34924 ft | 433 kts | 217° |
| 2026-05-07 08:56 | 37.70634 | -11.07726 | 34924 ft | 432 kts | 216° |
| 2026-05-07 08:57 | 37.65787 | -11.12191 | 34924 ft | 433 kts | 216° |
| 2026-05-07 08:57 | 37.60932 | -11.16658 | 34923 ft | 433 kts | 216° |
| 2026-05-07 08:58 | 37.56063 | -11.21129 | 34923 ft | 433 kts | 216° |
| 2026-05-07 08:58 | 37.51187 | -11.25600 | 34923 ft | 432 kts | 216° |
| 2026-05-07 08:59 | 37.46316 | -11.30058 | 34923 ft | 432 kts | 216° |
| 2026-05-07 08:59 | 37.41437 | -11.34518 | 34923 ft | 432 kts | 216° |
| 2026-05-07 09:00 | 37.36593 | -11.38938 | 34924 ft | 432 kts | 216° |
| 2026-05-07 09:00 | 37.31737 | -11.43361 | 34924 ft | 432 kts | 216° |
| 2026-05-07 09:01 | 37.26878 | -11.47781 | 34924 ft | 432 kts | 216° |
| 2026-05-07 09:01 | 37.22004 | -11.52206 | 34924 ft | 432 kts | 216° |
| 2026-05-07 09:02 | 37.17140 | -11.56616 | 34924 ft | 432 kts | 216° |
| 2026-05-07 09:02 | 37.12270 | -11.61024 | 34924 ft | 432 kts | 216° |
| 2026-05-07 09:03 | 37.07406 | -11.65412 | 34922 ft | 434 kts | 217° |
| 2026-05-07 09:03 | 37.02481 | -11.69881 | 34950 ft | 443 kts | 217° |
| 2026-05-07 09:04 | 36.97448 | -11.74451 | 34979 ft | 452 kts | 215° |
| 2026-05-07 09:04 | 36.92358 | -11.79043 | 34995 ft | 454 kts | 214° |
| 2026-05-07 09:05 | 36.87215 | -11.83639 | 35000 ft | 454 kts | 214° |
| 2026-05-07 09:05 | 36.82092 | -11.88200 | 35002 ft | 454 kts | 214° |
| 2026-05-07 09:06 | 36.76968 | -11.92772 | 35003 ft | 454 kts | 214° |
| 2026-05-07 09:06 | 36.71839 | -11.97349 | 35003 ft | 454 kts | 214° |
| 2026-05-07 09:07 | 36.66712 | -12.01919 | 35003 ft | 454 kts | 214° |
| 2026-05-07 09:07 | 36.61613 | -12.06458 | 35003 ft | 454 kts | 214° |
| 2026-05-07 09:08 | 36.56490 | -12.11011 | 35003 ft | 454 kts | 214° |
| 2026-05-07 09:08 | 36.51365 | -12.15557 | 35003 ft | 454 kts | 214° |
| 2026-05-07 09:09 | 36.46240 | -12.20097 | 35003 ft | 454 kts | 214° |
| 2026-05-07 09:09 | 36.41081 | -12.24658 | 35003 ft | 454 kts | 214° |
| 2026-05-07 09:10 | 36.35968 | -12.29172 | 35003 ft | 454 kts | 214° |
| 2026-05-07 09:10 | 36.30827 | -12.33703 | 35003 ft | 454 kts | 214° |
| 2026-05-07 09:11 | 36.25692 | -12.38222 | 35003 ft | 453 kts | 214° |
| 2026-05-07 09:11 | 36.20560 | -12.42730 | 35003 ft | 453 kts | 214° |
| 2026-05-07 09:12 | 36.15403 | -12.47254 | 35003 ft | 453 kts | 214° |
| 2026-05-07 09:12 | 36.10277 | -12.51742 | 35003 ft | 453 kts | 215° |
| 2026-05-07 09:13 | 36.05330 | -12.56596 | 35003 ft | 454 kts | 222° |
| 2026-05-07 09:13 | 36.00902 | -12.62124 | 35004 ft | 454 kts | 228° |
| 2026-05-07 09:14 | 35.96639 | -12.67925 | 35003 ft | 454 kts | 227° |
| 2026-05-07 09:14 | 35.92416 | -12.73670 | 35003 ft | 454 kts | 227° |
| 2026-05-07 09:15 | 35.88148 | -12.79424 | 35002 ft | 454 kts | 227° |
| 2026-05-07 09:15 | 35.83843 | -12.85172 | 34999 ft | 454 kts | 227° |
| 2026-05-07 09:16 | 35.79570 | -12.90881 | 34993 ft | 454 kts | 227° |
| 2026-05-07 09:16 | 35.75298 | -12.96591 | 34985 ft | 454 kts | 227° |
| 2026-05-07 09:17 | 35.71021 | -13.02300 | 34982 ft | 452 kts | 227° |
| 2026-05-07 09:17 | 35.66777 | -13.07955 | 34980 ft | 449 kts | 227° |
| 2026-05-07 09:18 | 35.62552 | -13.13580 | 34980 ft | 446 kts | 227° |
| 2026-05-07 09:18 | 35.58206 | -13.19356 | 34996 ft | 443 kts | 228° |
| 2026-05-07 09:19 | 35.53823 | -13.25173 | 35017 ft | 443 kts | 228° |
| 2026-05-07 09:19 | 35.49399 | -13.31032 | 35026 ft | 443 kts | 228° |
| 2026-05-07 09:20 | 35.44955 | -13.36906 | 35030 ft | 443 kts | 228° |
| 2026-05-07 09:20 | 35.40538 | -13.42736 | 35031 ft | 443 kts | 228° |
| 2026-05-07 09:21 | 35.36001 | -13.48713 | 35031 ft | 443 kts | 228° |
| 2026-05-07 09:21 | 35.31540 | -13.54579 | 35031 ft | 443 kts | 228° |
| 2026-05-07 09:22 | 35.27092 | -13.60419 | 35031 ft | 443 kts | 228° |
| 2026-05-07 09:22 | 35.22646 | -13.66248 | 35031 ft | 443 kts | 227° |
| 2026-05-07 09:23 | 35.18140 | -13.72172 | 35031 ft | 443 kts | 227° |
| 2026-05-07 09:23 | 35.13708 | -13.77975 | 35031 ft | 443 kts | 227° |
| 2026-05-07 09:24 | 35.09420 | -13.83571 | 35031 ft | 443 kts | 227° |
| 2026-05-07 09:24 | 35.05203 | -13.89062 | 35031 ft | 443 kts | 227° |
| 2026-05-07 09:25 | 35.00998 | -13.94525 | 35030 ft | 445 kts | 227° |
| 2026-05-07 09:25 | 34.96765 | -14.00016 | 35029 ft | 449 kts | 227° |
| 2026-05-07 09:26 | 34.92471 | -14.05580 | 35029 ft | 455 kts | 227° |
| 2026-05-07 09:26 | 34.88118 | -14.11201 | 35028 ft | 460 kts | 227° |
| 2026-05-07 09:27 | 34.83706 | -14.16859 | 35030 ft | 460 kts | 227° |
| 2026-05-07 09:28 | 34.77140 | -14.25298 | 35031 ft | 459 kts | 227° |
| 2026-05-07 09:28 | 34.72760 | -14.30925 | 35031 ft | 459 kts | 227° |
| 2026-05-07 09:29 | 34.68387 | -14.36538 | 35031 ft | 459 kts | 227° |
| 2026-05-07 09:29 | 34.63997 | -14.42165 | 35031 ft | 459 kts | 227° |
| 2026-05-07 09:30 | 34.59642 | -14.47737 | 35031 ft | 459 kts | 227° |
| 2026-05-07 09:30 | 34.55259 | -14.53335 | 35031 ft | 459 kts | 227° |
| 2026-05-07 09:31 | 34.50862 | -14.58942 | 35031 ft | 459 kts | 227° |
| 2026-05-07 09:31 | 34.46460 | -14.64546 | 35031 ft | 459 kts | 227° |
| 2026-05-07 09:32 | 34.42087 | -14.70128 | 35031 ft | 459 kts | 227° |
| 2026-05-07 09:32 | 34.37703 | -14.75712 | 35031 ft | 459 kts | 227° |
| 2026-05-07 09:33 | 34.33278 | -14.81324 | 35031 ft | 459 kts | 227° |
| 2026-05-07 09:33 | 34.28881 | -14.86887 | 35031 ft | 459 kts | 227° |
| 2026-05-07 09:34 | 34.24466 | -14.92463 | 35032 ft | 458 kts | 227° |
| 2026-05-07 09:34 | 34.20072 | -14.98003 | 35031 ft | 457 kts | 227° |
| 2026-05-07 09:35 | 34.15684 | -15.03525 | 35032 ft | 457 kts | 227° |
| 2026-05-07 09:35 | 34.11331 | -15.08995 | 35032 ft | 456 kts | 227° |
| 2026-05-07 09:36 | 34.06944 | -15.14500 | 34310 ft | 458 kts | 227° |
| 2026-05-07 09:36 | 34.05309 | -15.16551 | 33573 ft | 465 kts | 227° |